sensor_id;sensor_type;location;lat;lon;timestamp;pressure;altitude;pressure_sealevel;temperature;humidity
73651;BME280;61944;52.538;6.108;2022-09-20T00:00:42;102152.38;;;11.59;74.12
73651;BME280;61944;52.538;6.108;2022-09-20T00:03:09;102153.34;;;11.51;74.58
73651;BME280;61944;52.538;6.108;2022-09-20T00:05:36;102159.16;;;11.58;74.08
73651;BME280;61944;52.538;6.108;2022-09-20T00:08:03;102165.34;;;11.52;74.04
73651;BME280;61944;52.538;6.108;2022-09-20T00:10:32;102161.03;;;11.42;74.31
73651;BME280;61944;52.538;6.108;2022-09-20T00:13:00;102163.75;;;11.26;75.02
73651;BME280;61944;52.538;6.108;2022-09-20T00:15:25;102165.25;;;11.48;74.20
73651;BME280;61944;52.538;6.108;2022-09-20T00:17:51;102160.09;;;11.50;73.61
73651;BME280;61944;52.538;6.108;2022-09-20T00:20:16;102163.72;;;11.51;74.57
73651;BME280;61944;52.538;6.108;2022-09-20T00:22:42;102169.91;;;11.56;74.00
73651;BME280;61944;52.538;6.108;2022-09-20T00:25:08;102169.44;;;11.54;73.79
73651;BME280;61944;52.538;6.108;2022-09-20T00:27:33;102162.31;;;11.57;73.75
73651;BME280;61944;52.538;6.108;2022-09-20T00:29:59;102153.44;;;11.55;73.49
73651;BME280;61944;52.538;6.108;2022-09-20T00:32:24;102156.22;;;11.55;73.20
73651;BME280;61944;52.538;6.108;2022-09-20T00:34:50;102162.75;;;11.59;73.48
73651;BME280;61944;52.538;6.108;2022-09-20T00:37:40;102171.91;;;11.56;73.25
73651;BME280;61944;52.538;6.108;2022-09-20T00:40:12;102171.56;;;11.57;72.81
73651;BME280;61944;52.538;6.108;2022-09-20T00:42:38;102162.75;;;11.59;72.87
73651;BME280;61944;52.538;6.108;2022-09-20T00:50:33;102169.09;;;11.56;73.13
73651;BME280;61944;52.538;6.108;2022-09-20T00:55:37;102169.22;;;11.47;73.37
73651;BME280;61944;52.538;6.108;2022-09-20T00:58:03;102165.25;;;11.48;73.33
73651;BME280;61944;52.538;6.108;2022-09-20T01:00:30;102163.38;;;11.40;74.00
73651;BME280;61944;52.538;6.108;2022-09-20T01:02:59;102162.09;;;11.50;74.20
73651;BME280;61944;52.538;6.108;2022-09-20T01:05:26;102161.16;;;11.46;74.44
73651;BME280;61944;52.538;6.108;2022-09-20T01:07:52;102153.81;;;11.41;74.19
73651;BME280;61944;52.538;6.108;2022-09-20T01:10:18;102154.63;;;11.42;74.57
73651;BME280;61944;52.538;6.108;2022-09-20T01:12:44;102157.78;;;11.40;75.19
73651;BME280;61944;52.538;6.108;2022-09-20T01:15:11;102164.09;;;11.37;75.40
73651;BME280;61944;52.538;6.108;2022-09-20T01:17:42;102158.16;;;11.38;75.03
73651;BME280;61944;52.538;6.108;2022-09-20T01:20:16;102160.38;;;11.33;74.60
73651;BME280;61944;52.538;6.108;2022-09-20T01:28:04;102165.03;;;10.92;75.34
73651;BME280;61944;52.538;6.108;2022-09-20T01:30:39;102167.59;;;10.97;76.43
73651;BME280;61944;52.538;6.108;2022-09-20T01:34:01;102159.19;;;10.97;76.07
73651;BME280;61944;52.538;6.108;2022-09-20T01:39:51;102164.91;;;11.25;75.67
73651;BME280;61944;52.538;6.108;2022-09-20T01:42:26;102170.19;;;11.27;75.33
73651;BME280;61944;52.538;6.108;2022-09-20T01:45:19;102164.56;;;11.27;75.71
73651;BME280;61944;52.538;6.108;2022-09-20T01:50:38;102160.25;;;11.17;76.11
73651;BME280;61944;52.538;6.108;2022-09-20T01:56:02;102165.16;;;11.20;76.61
73651;BME280;61944;52.538;6.108;2022-09-20T02:06:41;102169.97;;;11.19;76.30
73651;BME280;61944;52.538;6.108;2022-09-20T02:09:29;102162.34;;;11.08;76.92
73651;BME280;61944;52.538;6.108;2022-09-20T02:12:43;102164.56;;;11.14;76.63
73651;BME280;61944;52.538;6.108;2022-09-20T02:15:28;102165.03;;;11.16;76.88
73651;BME280;61944;52.538;6.108;2022-09-20T02:24:28;102162.47;;;11.11;77.03
73651;BME280;61944;52.538;6.108;2022-09-20T02:27:23;102164.56;;;11.14;76.67
73651;BME280;61944;52.538;6.108;2022-09-20T02:38:41;102157.56;;;11.08;77.59
73651;BME280;61944;52.538;6.108;2022-09-20T02:41:32;102162.34;;;11.08;77.80
73651;BME280;61944;52.538;6.108;2022-09-20T02:44:12;102159.31;;;11.13;77.82
73651;BME280;61944;52.538;6.108;2022-09-20T02:47:05;102155.22;;;11.10;77.76
73651;BME280;61944;52.538;6.108;2022-09-20T02:55:04;102156.63;;;11.04;78.27
73651;BME280;61944;52.538;6.108;2022-09-20T02:57:46;102164.09;;;11.12;77.82
73651;BME280;61944;52.538;6.108;2022-09-20T03:00:24;102163.41;;;11.15;78.18
73651;BME280;61944;52.538;6.108;2022-09-20T03:03:20;102158.50;;;11.12;78.07
73651;BME280;61944;52.538;6.108;2022-09-20T03:13:42;102166.91;;;11.00;78.96
73651;BME280;61944;52.538;6.108;2022-09-20T03:22:19;102181.28;;;10.98;79.28
73651;BME280;61944;52.538;6.108;2022-09-20T03:33:35;102169.69;;;11.00;79.76
73651;BME280;61944;52.538;6.108;2022-09-20T03:41:42;102173.22;;;11.22;78.40
73651;BME280;61944;52.538;6.108;2022-09-20T03:44:39;102174.72;;;11.19;78.87
73651;BME280;61944;52.538;6.108;2022-09-20T03:50:44;102175.66;;;11.23;78.42
73651;BME280;61944;52.538;6.108;2022-09-20T04:01:37;102172.97;;;11.14;79.05
73651;BME280;61944;52.538;6.108;2022-09-20T04:04:37;102179.53;;;11.18;78.66
73651;BME280;61944;52.538;6.108;2022-09-20T04:07:26;102182.09;;;11.24;78.50
73651;BME280;61944;52.538;6.108;2022-09-20T04:13:13;102192.13;;;11.12;79.33
73651;BME280;61944;52.538;6.108;2022-09-20T04:16:16;102191.66;;;11.23;79.06
73651;BME280;61944;52.538;6.108;2022-09-20T04:18:50;102194.13;;;11.24;79.44
73651;BME280;61944;52.538;6.108;2022-09-20T04:26:32;102181.25;;;11.23;79.68
73651;BME280;61944;52.538;6.108;2022-09-20T04:31:54;102184.31;;;11.18;80.02
73651;BME280;61944;52.538;6.108;2022-09-20T04:34:29;102183.59;;;11.21;80.10
73651;BME280;61944;52.538;6.108;2022-09-20T04:37:34;102180.00;;;11.21;79.41
73651;BME280;61944;52.538;6.108;2022-09-20T04:40:31;102187.47;;;11.29;79.42
73651;BME280;61944;52.538;6.108;2022-09-20T05:00:11;102200.66;;;11.28;80.00
73651;BME280;61944;52.538;6.108;2022-09-20T05:17:23;102203.00;;;11.26;80.45
73651;BME280;61944;52.538;6.108;2022-09-20T05:20:01;102206.84;;;11.34;80.73
73651;BME280;61944;52.538;6.108;2022-09-20T05:27:54;102213.28;;;11.22;80.77
73651;BME280;61944;52.538;6.108;2022-09-20T05:30:33;102214.31;;;11.30;80.88
73651;BME280;61944;52.538;6.108;2022-09-20T05:33:19;102216.31;;;11.29;81.87
73651;BME280;61944;52.538;6.108;2022-09-20T05:38:35;102224.84;;;11.33;81.59
73651;BME280;61944;52.538;6.108;2022-09-20T05:41:22;102226.94;;;11.24;83.16
73651;BME280;61944;52.538;6.108;2022-09-20T05:49:44;102237.22;;;11.19;83.36
73651;BME280;61944;52.538;6.108;2022-09-20T05:52:21;102242.13;;;11.23;82.92
73651;BME280;61944;52.538;6.108;2022-09-20T05:55:23;102236.72;;;11.30;82.58
73651;BME280;61944;52.538;6.108;2022-09-20T06:00:21;102243.28;;;11.34;83.50
73651;BME280;61944;52.538;6.108;2022-09-20T06:06:08;102248.19;;;11.37;82.02
73651;BME280;61944;52.538;6.108;2022-09-20T06:11:56;102250.28;;;11.40;82.62
73651;BME280;61944;52.538;6.108;2022-09-20T06:17:23;102242.34;;;11.30;84.49
73651;BME280;61944;52.538;6.108;2022-09-20T06:20:03;102254.03;;;11.32;85.38
73651;BME280;61944;52.538;6.108;2022-09-20T06:22:41;102277.84;;;11.38;84.90
73651;BME280;61944;52.538;6.108;2022-09-20T06:27:41;102267.44;;;11.14;85.98
73651;BME280;61944;52.538;6.108;2022-09-20T06:30:39;102278.69;;;11.26;86.84
73651;BME280;61944;52.538;6.108;2022-09-20T06:33:18;102273.09;;;11.38;85.79
73651;BME280;61944;52.538;6.108;2022-09-20T06:36:05;102290.13;;;11.46;84.55
73651;BME280;61944;52.538;6.108;2022-09-20T06:41:50;102281.84;;;11.37;87.67
73651;BME280;61944;52.538;6.108;2022-09-20T06:44:16;102284.31;;;11.38;88.42
73651;BME280;61944;52.538;6.108;2022-09-20T06:46:41;102281.84;;;11.37;86.90
73651;BME280;61944;52.538;6.108;2022-09-20T06:49:07;102282.06;;;11.44;88.19
73651;BME280;61944;52.538;6.108;2022-09-20T06:51:35;102281.97;;;11.41;86.56
73651;BME280;61944;52.538;6.108;2022-09-20T06:54:01;102282.66;;;11.37;90.76
73651;BME280;61944;52.538;6.108;2022-09-20T06:56:29;102280.19;;;11.36;92.35
73651;BME280;61944;52.538;6.108;2022-09-20T06:58:55;102289.78;;;11.47;89.52
73651;BME280;61944;52.538;6.108;2022-09-20T07:01:21;102281.84;;;11.49;88.38
73651;BME280;61944;52.538;6.108;2022-09-20T07:03:47;102284.75;;;11.53;85.98
73651;BME280;61944;52.538;6.108;2022-09-20T07:06:12;102281.59;;;11.54;90.00
73651;BME280;61944;52.538;6.108;2022-09-20T07:08:45;102276.72;;;11.51;87.29
73651;BME280;61944;52.538;6.108;2022-09-20T07:11:14;102280.91;;;11.70;84.53
73651;BME280;61944;52.538;6.108;2022-09-20T07:13:41;102274.13;;;11.71;88.26
73651;BME280;61944;52.538;6.108;2022-09-20T07:16:07;102270.38;;;11.54;90.37
73651;BME280;61944;52.538;6.108;2022-09-20T07:18:34;102267.94;;;11.53;88.31
73651;BME280;61944;52.538;6.108;2022-09-20T07:21:00;102267.47;;;11.63;90.26
73651;BME280;61944;52.538;6.108;2022-09-20T07:23:26;102269.09;;;11.76;86.85
73651;BME280;61944;52.538;6.108;2022-09-20T07:25:57;102267.94;;;11.77;87.61
73651;BME280;61944;52.538;6.108;2022-09-20T07:28:25;102268.13;;;11.85;90.48
73651;BME280;61944;52.538;6.108;2022-09-20T07:30:51;102267.94;;;11.77;85.66
73651;BME280;61944;52.538;6.108;2022-09-20T07:33:16;102277.53;;;11.76;92.48
73651;BME280;61944;52.538;6.108;2022-09-20T07:35:46;102266.19;;;11.73;87.67
73651;BME280;61944;52.538;6.108;2022-09-20T07:38:12;102267.59;;;11.91;92.12
73651;BME280;61944;52.538;6.108;2022-09-20T07:40:37;102281.25;;;11.93;91.48
73651;BME280;61944;52.538;6.108;2022-09-20T07:43:03;102274.59;;;11.85;91.79
73651;BME280;61944;52.538;6.108;2022-09-20T07:45:28;102270.13;;;11.84;88.55
73651;BME280;61944;52.538;6.108;2022-09-20T07:47:56;102278.09;;;11.94;86.65
73651;BME280;61944;52.538;6.108;2022-09-20T07:50:22;102277.41;;;11.97;86.61
73651;BME280;61944;52.538;6.108;2022-09-20T07:52:47;102274.84;;;11.92;90.14
73651;BME280;61944;52.538;6.108;2022-09-20T07:55:12;102284.03;;;12.05;87.80
73651;BME280;61944;52.538;6.108;2022-09-20T07:57:38;102294.78;;;12.15;88.65
73651;BME280;61944;52.538;6.108;2022-09-20T08:00:05;102294.78;;;12.15;90.21
73651;BME280;61944;52.538;6.108;2022-09-20T08:02:31;102296.31;;;12.13;90.54
73651;BME280;61944;52.538;6.108;2022-09-20T08:04:56;102298.97;;;12.22;89.19
73651;BME280;61944;52.538;6.108;2022-09-20T08:07:21;102307.06;;;12.23;89.20
73651;BME280;61944;52.538;6.108;2022-09-20T08:09:47;102312.69;;;12.23;90.90
73651;BME280;61944;52.538;6.108;2022-09-20T08:12:12;102313.38;;;12.20;90.39
73651;BME280;61944;52.538;6.108;2022-09-20T08:14:38;102312.75;;;12.27;89.54
73651;BME280;61944;52.538;6.108;2022-09-20T08:17:04;102321.88;;;12.36;87.72
73651;BME280;61944;52.538;6.108;2022-09-20T08:19:29;102313.06;;;12.37;87.72
73651;BME280;61944;52.538;6.108;2022-09-20T08:21:54;102314.13;;;12.45;86.86
73651;BME280;61944;52.538;6.108;2022-09-20T08:24:20;102310.84;;;12.43;86.56
73651;BME280;61944;52.538;6.108;2022-09-20T08:26:46;102311.88;;;12.51;85.44
73651;BME280;61944;52.538;6.108;2022-09-20T08:29:12;102312.09;;;12.58;84.94
73651;BME280;61944;52.538;6.108;2022-09-20T08:31:40;102310.66;;;12.64;86.79
73651;BME280;61944;52.538;6.108;2022-09-20T08:34:09;102318.47;;;12.71;84.80
73651;BME280;61944;52.538;6.108;2022-09-20T08:36:38;102322.66;;;12.77;87.89
73651;BME280;61944;52.538;6.108;2022-09-20T08:39:05;102332.16;;;12.72;87.82
73651;BME280;61944;52.538;6.108;2022-09-20T08:41:39;102326.53;;;12.72;85.77
73651;BME280;61944;52.538;6.108;2022-09-20T08:46:53;102321.19;;;12.67;86.85
73651;BME280;61944;52.538;6.108;2022-09-20T08:49:27;102334.56;;;12.58;85.50
73651;BME280;61944;52.538;6.108;2022-09-20T08:51:54;102335.16;;;12.51;85.16
73651;BME280;61944;52.538;6.108;2022-09-20T08:54:23;102335.81;;;12.60;85.11
73651;BME280;61944;52.538;6.108;2022-09-20T08:56:50;102335.44;;;12.74;85.45
73651;BME280;61944;52.538;6.108;2022-09-20T08:59:18;102330.69;;;12.91;84.58
73651;BME280;61944;52.538;6.108;2022-09-20T09:01:45;102333.16;;;12.92;83.49
73651;BME280;61944;52.538;6.108;2022-09-20T09:04:22;102336.56;;;12.86;82.56
73651;BME280;61944;52.538;6.108;2022-09-20T09:06:49;102324.16;;;13.02;81.57
73651;BME280;61944;52.538;6.108;2022-09-20T09:09:20;102331.91;;;13.06;80.69
73651;BME280;61944;52.538;6.108;2022-09-20T09:11:48;102332.00;;;13.09;80.38
73651;BME280;61944;52.538;6.108;2022-09-20T09:14:33;102334.81;;;13.25;81.72
73651;BME280;61944;52.538;6.108;2022-09-20T09:17:18;102335.56;;;13.22;80.79
73651;BME280;61944;52.538;6.108;2022-09-20T09:19:52;102336.88;;;13.56;79.89
73651;BME280;61944;52.538;6.108;2022-09-20T09:22:40;102331.69;;;13.58;81.05
73651;BME280;61944;52.538;6.108;2022-09-20T09:27:31;102337.41;;;13.46;78.07
73651;BME280;61944;52.538;6.108;2022-09-20T09:29:57;102338.97;;;13.44;78.32
73651;BME280;61944;52.538;6.108;2022-09-20T09:32:26;102330.78;;;13.54;78.71
73651;BME280;61944;52.538;6.108;2022-09-20T09:34:55;102328.06;;;13.74;78.07
73651;BME280;61944;52.538;6.108;2022-09-20T09:37:29;102333.69;;;13.74;77.48
73651;BME280;61944;52.538;6.108;2022-09-20T09:40:16;102335.59;;;13.70;78.55
73651;BME280;61944;52.538;6.108;2022-09-20T09:42:54;102337.31;;;13.74;78.68
73651;BME280;61944;52.538;6.108;2022-09-20T09:45:35;102345.88;;;13.62;77.47
73651;BME280;61944;52.538;6.108;2022-09-20T09:48:21;102343.41;;;13.60;76.06
73651;BME280;61944;52.538;6.108;2022-09-20T09:50:47;102342.84;;;13.55;77.49
73651;BME280;61944;52.538;6.108;2022-09-20T09:53:22;102347.38;;;13.59;79.35
73651;BME280;61944;52.538;6.108;2022-09-20T09:56:19;102345.78;;;13.58;77.99
73651;BME280;61944;52.538;6.108;2022-09-20T10:04:06;102335.84;;;14.32;74.72
73651;BME280;61944;52.538;6.108;2022-09-20T10:07:05;102329.44;;;14.90;76.94
73651;BME280;61944;52.538;6.108;2022-09-20T10:13:20;102332.06;;;14.24;75.75
73651;BME280;61944;52.538;6.108;2022-09-20T10:15:43;102336.00;;;14.03;74.28
73651;BME280;61944;52.538;6.108;2022-09-20T10:21:03;102338.75;;;14.00;76.94
73651;BME280;61944;52.538;6.108;2022-09-20T10:24:08;102339.56;;;14.00;76.11
73651;BME280;61944;52.538;6.108;2022-09-20T10:27:01;102340.38;;;14.01;78.07
73651;BME280;61944;52.538;6.108;2022-09-20T10:35:21;102328.91;;;14.10;77.10
73651;BME280;61944;52.538;6.108;2022-09-20T10:38:11;102326.22;;;14.33;76.45
73651;BME280;61944;52.538;6.108;2022-09-20T10:53:02;102350.75;;;13.81;81.30
73651;BME280;61944;52.538;6.108;2022-09-20T11:06:31;102355.19;;;13.50;82.63
73651;BME280;61944;52.538;6.108;2022-09-20T11:09:04;102359.75;;;13.55;83.69
73651;BME280;61944;52.538;6.108;2022-09-20T11:11:41;102360.75;;;13.62;83.47
73651;BME280;61944;52.538;6.108;2022-09-20T11:14:16;102351.31;;;13.71;83.48
73651;BME280;61944;52.538;6.108;2022-09-20T11:22:17;102364.25;;;13.91;82.55
73651;BME280;61944;52.538;6.108;2022-09-20T11:30:14;102361.06;;;14.09;83.05
73651;BME280;61944;52.538;6.108;2022-09-20T11:35:32;102346.59;;;14.26;81.36
73651;BME280;61944;52.538;6.108;2022-09-20T11:38:03;102355.75;;;14.58;80.13
73651;BME280;61944;52.538;6.108;2022-09-20T11:40:37;102348.66;;;14.84;78.51
73651;BME280;61944;52.538;6.108;2022-09-20T11:43:07;102358.97;;;14.96;76.84
73651;BME280;61944;52.538;6.108;2022-09-20T11:45:36;102351.06;;;15.05;72.62
73651;BME280;61944;52.538;6.108;2022-09-20T11:51:08;102352.56;;;15.41;73.00
73651;BME280;61944;52.538;6.108;2022-09-20T11:54:11;102354.13;;;15.39;72.19
73651;BME280;61944;52.538;6.108;2022-09-20T11:56:52;102351.25;;;15.58;70.25
73651;BME280;61944;52.538;6.108;2022-09-20T11:59:29;102348.94;;;15.87;66.82
73651;BME280;61944;52.538;6.108;2022-09-20T12:01:59;102349.16;;;16.28;68.38
73651;BME280;61944;52.538;6.108;2022-09-20T12:04:34;102361.13;;;16.18;68.04
73651;BME280;61944;52.538;6.108;2022-09-20T12:07:03;102354.53;;;16.10;67.00
73651;BME280;61944;52.538;6.108;2022-09-20T12:09:36;102355.78;;;15.86;67.03
73651;BME280;61944;52.538;6.108;2022-09-20T12:12:43;102362.88;;;15.76;68.87
73651;BME280;61944;52.538;6.108;2022-09-20T12:28:40;102358.66;;;15.67;65.56
73651;BME280;61944;52.538;6.108;2022-09-20T12:36:36;102364.28;;;15.20;72.83
73651;BME280;61944;52.538;6.108;2022-09-20T12:39:14;102359.16;;;15.07;72.24
73651;BME280;61944;52.538;6.108;2022-09-20T12:47:32;102369.13;;;15.00;76.26
73651;BME280;61944;52.538;6.108;2022-09-20T12:50:09;102364.03;;;14.87;76.10
73651;BME280;61944;52.538;6.108;2022-09-20T12:52:56;102360.72;;;14.65;78.28
73651;BME280;61944;52.538;6.108;2022-09-20T13:00:39;102360.00;;;14.88;80.52
73651;BME280;61944;52.538;6.108;2022-09-20T13:11:16;102358.16;;;14.95;71.43
73651;BME280;61944;52.538;6.108;2022-09-20T13:13:50;102364.81;;;15.07;70.30
73651;BME280;61944;52.538;6.108;2022-09-20T13:16:20;102361.00;;;15.18;70.06
73651;BME280;61944;52.538;6.108;2022-09-20T13:18:49;102351.53;;;15.30;67.68
73651;BME280;61944;52.538;6.108;2022-09-20T13:21:19;102358.63;;;15.20;66.76
73651;BME280;61944;52.538;6.108;2022-09-20T13:23:48;102349.47;;;15.04;66.39
73651;BME280;61944;52.538;6.108;2022-09-20T13:26:15;102354.22;;;15.00;66.01
73651;BME280;61944;52.538;6.108;2022-09-20T13:28:50;102359.25;;;15.10;67.88
73651;BME280;61944;52.538;6.108;2022-09-20T13:31:21;102358.47;;;15.13;65.80
73651;BME280;61944;52.538;6.108;2022-09-20T13:33:47;102355.88;;;15.24;65.10
73651;BME280;61944;52.538;6.108;2022-09-20T13:36:13;102348.53;;;15.19;66.58
73651;BME280;61944;52.538;6.108;2022-09-20T13:38:39;102351.38;;;15.65;64.50
73651;BME280;61944;52.538;6.108;2022-09-20T13:41:09;102364.19;;;15.82;64.64
73651;BME280;61944;52.538;6.108;2022-09-20T13:43:36;102352.63;;;15.45;65.93
73651;BME280;61944;52.538;6.108;2022-09-20T13:46:12;102354.00;;;15.32;66.78
73651;BME280;61944;52.538;6.108;2022-09-20T13:48:40;102356.09;;;15.81;62.26
73651;BME280;61944;52.538;6.108;2022-09-20T13:51:16;102350.91;;;16.10;60.64
73651;BME280;61944;52.538;6.108;2022-09-20T13:53:41;102348.38;;;16.31;57.62
73651;BME280;61944;52.538;6.108;2022-09-20T13:56:29;102356.53;;;16.36;56.68
73651;BME280;61944;52.538;6.108;2022-09-20T13:58:55;102353.38;;;16.41;60.20
73651;BME280;61944;52.538;6.108;2022-09-20T14:01:29;102362.53;;;16.04;61.19
73651;BME280;61944;52.538;6.108;2022-09-20T14:04:03;102359.91;;;15.92;65.19
73651;BME280;61944;52.538;6.108;2022-09-20T14:06:30;102358.56;;;16.09;62.89
73651;BME280;61944;52.538;6.108;2022-09-20T14:08:57;102358.44;;;16.29;61.91
73651;BME280;61944;52.538;6.108;2022-09-20T14:11:27;102363.75;;;16.34;61.31
73651;BME280;61944;52.538;6.108;2022-09-20T14:13:57;102365.44;;;16.38;60.41
73651;BME280;61944;52.538;6.108;2022-09-20T14:16:28;102370.31;;;16.41;59.94
73651;BME280;61944;52.538;6.108;2022-09-20T14:18:56;102358.78;;;16.23;63.11
73651;BME280;61944;52.538;6.108;2022-09-20T14:21:30;102364.59;;;16.34;61.40
73651;BME280;61944;52.538;6.108;2022-09-20T14:24:05;102364.06;;;16.55;60.07
73651;BME280;61944;52.538;6.108;2022-09-20T14:26:33;102356.16;;;16.68;59.92
73651;BME280;61944;52.538;6.108;2022-09-20T14:29:28;102366.91;;;16.85;61.66
73651;BME280;61944;52.538;6.108;2022-09-20T14:32:03;102361.69;;;16.61;61.51
73651;BME280;61944;52.538;6.108;2022-09-20T14:34:30;102354.25;;;16.79;62.34
73651;BME280;61944;52.538;6.108;2022-09-20T14:37:10;102354.53;;;17.01;57.23
73651;BME280;61944;52.538;6.108;2022-09-20T14:39:47;102356.44;;;16.90;58.78
73651;BME280;61944;52.538;6.108;2022-09-20T14:42:43;102357.09;;;17.13;60.59
73651;BME280;61944;52.538;6.108;2022-09-20T14:48:03;102369.47;;;16.98;55.27
73651;BME280;61944;52.538;6.108;2022-09-20T14:50:35;102353.66;;;16.93;59.75
73651;BME280;61944;52.538;6.108;2022-09-20T14:53:22;102359.94;;;17.13;55.76
73651;BME280;61944;52.538;6.108;2022-09-20T14:55:56;102357.00;;;17.40;55.72
73651;BME280;61944;52.538;6.108;2022-09-20T14:58:22;102362.28;;;17.41;56.91
73651;BME280;61944;52.538;6.108;2022-09-20T15:00:54;102364.78;;;17.13;59.10
73651;BME280;61944;52.538;6.108;2022-09-20T15:03:35;102363.41;;;17.33;58.00
73651;BME280;61944;52.538;6.108;2022-09-20T15:06:01;102355.72;;;17.34;55.53
73651;BME280;61944;52.538;6.108;2022-09-20T15:08:27;102364.44;;;17.62;54.52
73651;BME280;61944;52.538;6.108;2022-09-20T15:10:52;102364.31;;;17.44;56.80
73651;BME280;61944;52.538;6.108;2022-09-20T15:13:18;102364.25;;;17.41;56.20
73651;BME280;61944;52.538;6.108;2022-09-20T15:15:47;102366.09;;;17.63;56.10
73651;BME280;61944;52.538;6.108;2022-09-20T15:18:21;102355.28;;;17.32;55.10
73651;BME280;61944;52.538;6.108;2022-09-20T15:20:48;102364.44;;;17.62;57.45
73651;BME280;61944;52.538;6.108;2022-09-20T15:23:14;102356.91;;;17.33;56.00
73651;BME280;61944;52.538;6.108;2022-09-20T15:25:39;102366.59;;;17.32;54.37
73651;BME280;61944;52.538;6.108;2022-09-20T15:28:05;102367.47;;;17.36;60.38
73651;BME280;61944;52.538;6.108;2022-09-20T15:30:31;102368.38;;;17.47;54.32
73651;BME280;61944;52.538;6.108;2022-09-20T15:32:57;102375.13;;;17.35;53.67
73651;BME280;61944;52.538;6.108;2022-09-20T15:35:22;102362.88;;;16.86;59.59
73651;BME280;61944;52.538;6.108;2022-09-20T15:37:48;102360.81;;;16.53;60.18
73651;BME280;61944;52.538;6.108;2022-09-20T15:40:13;102362.19;;;16.10;63.73
73651;BME280;61944;52.538;6.108;2022-09-20T15:42:39;102363.22;;;15.98;59.82
73651;BME280;61944;52.538;6.108;2022-09-20T15:45:07;102370.72;;;16.13;59.46
73651;BME280;61944;52.538;6.108;2022-09-20T15:47:34;102364.34;;;15.93;62.54
73651;BME280;61944;52.538;6.108;2022-09-20T15:50:00;102368.06;;;15.97;63.01
73651;BME280;61944;52.538;6.108;2022-09-20T15:52:25;102367.28;;;15.74;61.94
73651;BME280;61944;52.538;6.108;2022-09-20T15:54:56;102361.78;;;15.61;66.08
73651;BME280;61944;52.538;6.108;2022-09-20T15:57:23;102366.94;;;15.79;68.67
73651;BME280;61944;52.538;6.108;2022-09-20T15:59:48;102364.44;;;15.74;63.40
73651;BME280;61944;52.538;6.108;2022-09-20T16:02:14;102362.84;;;15.73;65.14
73651;BME280;61944;52.538;6.108;2022-09-20T16:04:39;102358.69;;;15.70;66.47
73651;BME280;61944;52.538;6.108;2022-09-20T16:07:06;102358.47;;;15.56;64.42
73651;BME280;61944;52.538;6.108;2022-09-20T16:09:33;102363.63;;;15.50;65.85
73651;BME280;61944;52.538;6.108;2022-09-20T16:12:00;102375.81;;;15.77;65.75
73651;BME280;61944;52.538;6.108;2022-09-20T16:14:25;102363.69;;;15.77;63.79
73651;BME280;61944;52.538;6.108;2022-09-20T16:16:51;102374.47;;;15.94;62.81
73651;BME280;61944;52.538;6.108;2022-09-20T16:19:16;102365.22;;;15.97;64.16
73651;BME280;61944;52.538;6.108;2022-09-20T16:21:44;102378.09;;;15.95;65.07
73651;BME280;61944;52.538;6.108;2022-09-20T16:24:15;102369.13;;;15.66;65.33
73651;BME280;61944;52.538;6.108;2022-09-20T16:26:41;102372.81;;;15.70;66.29
73651;BME280;61944;52.538;6.108;2022-09-20T16:29:07;102377.66;;;15.70;66.67
73651;BME280;61944;52.538;6.108;2022-09-20T16:34:02;102384.38;;;15.61;66.40
73651;BME280;61944;52.538;6.108;2022-09-20T16:36:29;102385.81;;;15.52;66.12
73651;BME280;61944;52.538;6.108;2022-09-20T16:38:54;102391.94;;;15.57;66.27
73651;BME280;61944;52.538;6.108;2022-09-20T16:41:21;102388.69;;;15.55;66.30
73651;BME280;61944;52.538;6.108;2022-09-20T16:43:48;102395.03;;;15.49;67.01
73651;BME280;61944;52.538;6.108;2022-09-20T16:46:17;102401.59;;;15.33;65.34
73651;BME280;61944;52.538;6.108;2022-09-20T16:48:44;102389.63;;;15.40;67.01
73651;BME280;61944;52.538;6.108;2022-09-20T16:51:11;102392.44;;;15.40;66.53
73651;BME280;61944;52.538;6.108;2022-09-20T16:53:36;102399.25;;;15.39;66.43
73651;BME280;61944;52.538;6.108;2022-09-20T16:56:02;102398.41;;;15.35;66.69
73651;BME280;61944;52.538;6.108;2022-09-20T16:58:30;102396.69;;;15.30;66.95
73651;BME280;61944;52.538;6.108;2022-09-20T17:01:05;102406.63;;;15.24;67.20
73651;BME280;61944;52.538;6.108;2022-09-20T17:03:32;102399.19;;;15.12;68.94
73651;BME280;61944;52.538;6.108;2022-09-20T17:06:05;102407.56;;;14.89;69.83
73651;BME280;61944;52.538;6.108;2022-09-20T17:08:31;102409.63;;;14.92;69.62
73651;BME280;61944;52.538;6.108;2022-09-20T17:11:03;102412.84;;;14.91;69.87
73651;BME280;61944;52.538;6.108;2022-09-20T17:13:29;102409.25;;;14.94;70.34
73651;BME280;61944;52.538;6.108;2022-09-20T17:16:04;102420.31;;;15.02;70.16
73651;BME280;61944;52.538;6.108;2022-09-20T17:18:30;102415.34;;;14.96;70.37
73651;BME280;61944;52.538;6.108;2022-09-20T17:21:02;102417.72;;;14.94;70.97
73651;BME280;61944;52.538;6.108;2022-09-20T17:23:28;102417.34;;;14.76;70.74
73651;BME280;61944;52.538;6.108;2022-09-20T17:26:09;102409.09;;;14.67;70.87
73651;BME280;61944;52.538;6.108;2022-09-20T17:28:38;102419.78;;;14.77;71.52
73651;BME280;61944;52.538;6.108;2022-09-20T17:31:05;102411.00;;;14.63;71.88
73651;BME280;61944;52.538;6.108;2022-09-20T17:33:32;102403.66;;;14.58;71.97
73651;BME280;61944;52.538;6.108;2022-09-20T17:35:58;102416.22;;;14.61;71.44
73651;BME280;61944;52.538;6.108;2022-09-20T17:38:28;102431.13;;;14.61;72.34
73651;BME280;61944;52.538;6.108;2022-09-20T17:41:06;102421.56;;;14.50;72.63
73651;BME280;61944;52.538;6.108;2022-09-20T17:43:35;102442.56;;;14.53;72.16
73651;BME280;61944;52.538;6.108;2022-09-20T17:46:06;102424.44;;;14.34;72.68
73651;BME280;61944;52.538;6.108;2022-09-20T17:48:32;102428.72;;;14.28;72.70